South Padre Island, TX (78597)

1:11 AM CDT on April 23, 2017 (GMT -0500)
Laguna Vista | | Change Station

Elev 118 ft 26.10 °N, 97.29 °W | Updated 6 minutes ago

Overcast
Overcast
77.5 °F
Feels Like 79 °F
N
11.0
Wind Variable Wind from NNE
Gusts 13.0 mph

Today
High -- | Low -- °F
--% Chance of Precip.
Yesterday
High -- | Low -- °F
Precip. -- in
Pressure 30.00 in
Visibility 10.0 miles
Clouds Few 2100 ft
Scattered Clouds 3600 ft
Overcast 7000 ft
Heat Index 79 °F
Dew Point 73 °F
Humidity 87%
Rainfall 0.00 in
Snow Depth Not available.
6:57 AM 7:56 PM
Waning Crescent, 14% visible
METAR KPIL 230553Z AUTO 03006KT 10SM FEW021 SCT036 OVC070 25/22 A3000 RMK AO2 SLP157 T02500222 10272 20244 403110217 51018
Pressure 30.00 in
Visibility 10.0 miles
Clouds Few 2100 ft
Scattered Clouds 3600 ft
Overcast 7000 ft
Heat Index 79 °F
Dew Point 73 °F
Humidity 87%
Rainfall 0.00 in
Snow Depth Not available.
6:57 AM 7:56 PM
Waning Crescent, 14% visible
METAR KPIL 230553Z AUTO 03006KT 10SM FEW021 SCT036 OVC070 25/22 A3000 RMK AO2 SLP157 T02500222 10272 20244 403110217 51018

Get Severe Weather Alerts

Thanks for signing up!

Be on the lookout for a verification email in your inbox.

You'll start receiving the daily forecast at 8 AM.

×

10-Day Weather Forecast

Almanac

Astronomy

Apr. 23, 2017 Rise Set
Actual Time
Civil Twilight
Nautical Twilight
Astronomical Twilight
Moon
Length of Visible Light
Length of Day
Tomorrow will be .
, % of the Moon is Illuminated

Today's Extremes

State Highs State Lows

Community

WunderPhotos

WunderBlog® & News

Nearby

Air Quality

  Air Quality AQ Index Pollutant
Not available.

Snow Depth

Station Depth Elevation

Earthquake Activity

City Distance Mag. Time & Date
Minimum magnitude displayed is 2.5.

Coastal Water Temperatures

Place Temperature

Stations

Nearby Weather Stations

Station Location Temp. Windchill Dew Point Humidity Wind Precip. Elev Updated Type
                   

Watches & Warnings

There are currently no watches in effect.